Time;durP1;ratioP1;P1;durP2;ratioP2;P2;SDS_P1;SDS_P2;PMS_P1;PMS_P2;Temp;Humidity;BMP_temperature;BMP_pressure;BME280_temperature;BME280_humidity;BME280_pressure;Samples;Min_cycle;Max_cycle;Signal;HPM_P1;HPM_P2
2021/04/25 00:00:15;;;;;;;10.47;9.37;;;;;;;6.92;65.84;98476.22;5061214;28;20217;-73
2021/04/25 00:02:42;;;;;;;17.70;11.23;;;;;;;6.92;65.71;98476.22;5060291;28;20227;-73
2021/04/25 00:05:12;;;;;;;10.17;9.10;;;;;;;6.89;65.73;98465.94;5060935;28;20226;-73
2021/04/25 00:07:40;;;;;;;11.37;10.27;;;;;;;6.96;64.78;98469.72;5062620;28;20203;-72
2021/04/25 00:10:09;;;;;;;11.00;9.90;;;;;;;6.99;64.67;98473.88;5060531;28;20203;-73
2021/04/25 00:12:37;;;;;;;13.37;10.37;;;;;;;6.95;65.35;98460.13;5065168;28;20218;-73
2021/04/25 00:15:05;;;;;;;14.53;9.93;;;;;;;6.83;65.52;98466.44;5057786;28;20211;-72
2021/04/25 00:17:32;;;;;;;11.77;9.83;;;;;;;6.86;65.32;98459.09;5061331;28;20225;-74
2021/04/25 00:19:59;;;;;;;17.07;10.73;;;;;;;6.74;66.34;98458.34;5062471;28;20207;-73
2021/04/25 00:22:26;;;;;;;11.90;9.83;;;;;;;6.66;66.36;98453.72;5060189;28;20447;-73
2021/04/25 00:24:53;;;;;;;12.90;10.00;;;;;;;6.66;67.47;98458.16;5063555;28;20477;-73
2021/04/25 00:27:21;;;;;;;15.47;10.43;;;;;;;6.53;67.87;98463.59;5062798;28;20207;-73
2021/04/25 00:29:48;;;;;;;12.87;9.87;;;;;;;6.54;68.42;98467.06;5060497;28;20217;-73
2021/04/25 00:32:15;;;;;;;10.97;9.57;;;;;;;6.41;67.75;98467.25;5061558;28;20233;-73
2021/04/25 00:34:42;;;;;;;12.30;9.17;;;;;;;6.32;68.15;98456.50;5061920;28;20207;-73
2021/04/25 00:37:09;;;;;;;14.13;11.07;;;;;;;6.24;68.27;98456.28;5061992;28;20230;-73
2021/04/25 00:39:36;;;;;;;12.07;10.87;;;;;;;6.13;68.93;98453.69;5063920;28;20199;-72
2021/04/25 00:42:03;;;;;;;12.13;10.63;;;;;;;6.11;68.80;98453.81;5061509;28;20295;-72
2021/04/25 00:44:32;;;;;;;11.30;9.80;;;;;;;6.11;68.46;98455.59;5059076;28;20219;-73
2021/04/25 00:46:59;;;;;;;14.10;10.17;;;;;;;6.06;68.97;98463.84;5062736;28;20707;-73
2021/04/25 00:49:27;;;;;;;14.43;10.53;;;;;;;5.88;69.65;98461.72;5061592;28;20709;-73
2021/04/25 00:51:54;;;;;;;13.27;10.37;;;;;;;5.83;69.63;98457.78;5061504;28;20689;-73
2021/04/25 00:54:21;;;;;;;10.67;9.57;;;;;;;5.82;70.06;98450.84;5059811;28;20218;-73
2021/04/25 00:56:48;;;;;;;12.40;11.10;;;;;;;5.80;70.07;98451.81;5062571;28;20570;-72
2021/04/25 00:59:15;;;;;;;11.77;10.67;;;;;;;5.76;70.46;98454.81;5063161;28;20246;-73
2021/04/25 01:01:43;;;;;;;10.60;9.50;;;;;;;5.73;70.34;98449.81;5063025;28;20219;-72
2021/04/25 01:04:10;;;;;;;10.73;9.63;;;;;;;5.65;71.00;98453.03;5061599;28;20207;-73
2021/04/25 01:06:37;;;;;;;11.37;9.87;;;;;;;5.59;71.11;98449.09;5062115;28;20230;-72
2021/04/25 01:09:05;;;;;;;13.13;9.97;;;;;;;5.62;71.44;98448.03;5060204;28;20202;-73
2021/04/25 01:11:32;;;;;;;13.33;10.67;;;;;;;5.49;71.84;98459.53;5061336;28;20725;-72
2021/04/25 01:14:00;;;;;;;13.77;9.97;;;;;;;5.54;71.44;98451.25;5056842;28;20207;-73
2021/04/25 01:16:28;;;;;;;11.53;10.43;;;;;;;5.47;71.87;98453.50;5061284;28;20203;-73
2021/04/25 01:18:56;;;;;;;10.80;9.63;;;;;;;5.44;71.89;98450.31;5058992;28;20589;-73
2021/04/25 01:21:23;;;;;;;12.73;10.10;;;;;;;5.34;72.44;98461.53;5057970;28;20222;-73
2021/04/25 01:23:50;;;;;;;11.23;10.13;;;;;;;5.28;72.29;98455.91;5060654;28;20349;-73
2021/04/25 01:26:18;;;;;;;12.97;10.80;;;;;;;5.38;71.70;98451.63;5059791;28;20835;-73
2021/04/25 01:28:45;;;;;;;16.40;10.70;;;;;;;5.37;71.44;98452.56;5059765;28;20211;-73
2021/04/25 01:31:12;;;;;;;11.83;10.73;;;;;;;5.27;71.86;98446.38;5061458;28;20243;-72
2021/04/25 01:33:39;;;;;;;10.70;9.40;;;;;;;5.20;72.35;98448.63;5061893;28;20812;-73
2021/04/25 01:36:07;;;;;;;10.93;9.90;;;;;;;5.01;73.13;98457.94;5060126;28;20576;-73
2021/04/25 01:38:35;;;;;;;11.03;10.03;;;;;;;4.97;73.14;98450.38;5060847;28;20203;-73
2021/04/25 01:41:02;;;;;;;10.67;9.67;;;;;;;4.89;73.59;98450.97;5058224;28;20227;-73
2021/04/25 01:43:29;;;;;;;10.63;9.13;;;;;;;5.01;72.88;98444.78;5060307;28;20207;-72
2021/04/25 01:45:56;;;;;;;10.90;9.80;;;;;;;4.96;72.71;98446.94;5062468;28;20219;-73
2021/04/25 01:48:23;;;;;;;12.03;9.97;;;;;;;5.03;72.62;98450.78;5059426;28;20337;-73
2021/04/25 01:50:50;;;;;;;10.97;9.83;;;;;;;5.05;72.46;98446.22;5060819;28;20206;-72
2021/04/25 01:53:18;;;;;;;14.17;10.43;;;;;;;5.02;72.75;98445.63;5059819;28;20452;-71
2021/04/25 01:55:45;;;;;;;13.23;11.87;;;;;;;4.95;73.28;98441.78;5058622;28;20195;-72
2021/04/25 01:58:13;;;;;;;12.77;10.33;;;;;;;4.84;73.59;98438.19;5061688;28;20610;-73
2021/04/25 02:00:42;;;;;;;12.27;10.27;;;;;;;4.99;72.93;98438.81;5058955;28;20217;-73
2021/04/25 02:03:10;;;;;;;10.93;9.83;;;;;;;4.89;73.69;98443.94;5061045;28;20211;-73
2021/04/25 02:05:37;;;;;;;12.53;9.83;;;;;;;4.77;74.40;98442.25;5060183;28;20218;-71
2021/04/25 02:08:05;;;;;;;11.73;10.50;;;;;;;4.74;74.30;98438.06;5058461;28;20199;-71
2021/04/25 02:10:33;;;;;;;11.23;10.20;;;;;;;4.66;75.28;98439.56;5058689;28;20211;-74
2021/04/25 02:13:01;;;;;;;11.17;9.90;;;;;;;4.70;74.43;98438.38;5061326;28;20241;-75
2021/04/25 02:15:28;;;;;;;11.53;10.43;;;;;;;4.68;74.09;98441.16;5058601;28;20306;-74
2021/04/25 02:17:55;;;;;;;12.77;11.10;;;;;;;4.70;73.72;98441.88;5058679;28;20654;-72
2021/04/25 02:20:23;;;;;;;11.93;10.73;;;;;;;4.69;73.53;98444.59;5058480;28;20285;-73
2021/04/25 02:22:52;;;;;;;12.30;11.10;;;;;;;4.69;73.94;98440.19;5061753;28;20223;-73
2021/04/25 02:25:20;;;;;;;10.73;9.83;;;;;;;4.58;74.42;98448.88;5059490;28;20718;-73
2021/04/25 02:27:47;;;;;;;13.67;10.47;;;;;;;4.56;74.47;98442.06;5059844;28;20674;-73
2021/04/25 02:30:18;;;;;;;11.60;10.50;;;;;;;4.47;74.79;98440.97;5062092;28;20226;-73
2021/04/25 02:32:45;;;;;;;10.73;9.73;;;;;;;4.33;76.12;98440.19;5059778;28;20234;-72
2021/04/25 02:35:13;;;;;;;10.17;9.00;;;;;;;4.20;76.66;98435.03;5059195;28;20696;-73
2021/04/25 02:37:40;;;;;;;12.33;10.50;;;;;;;3.99;78.08;98434.81;5057925;28;20206;-71
2021/04/25 02:40:10;;;;;;;13.37;10.80;;;;;;;3.89;79.07;98433.78;5056110;28;20691;-73
2021/04/25 02:42:37;;;;;;;11.67;10.57;;;;;;;3.77;80.19;98445.97;5060521;28;20257;-72
2021/04/25 02:45:06;;;;;;;11.33;10.23;;;;;;;3.87;79.90;98444.41;5057982;28;20629;-74
2021/04/25 02:47:34;;;;;;;12.00;10.80;;;;;;;3.71;80.50;98436.78;5061498;28;20219;-75
2021/04/25 02:50:02;;;;;;;10.50;9.43;;;;;;;3.69;80.77;98437.84;5055903;28;20587;-72
2021/04/25 02:52:29;;;;;;;16.27;11.40;;;;;;;3.67;81.44;98442.34;5060433;28;20727;-73
2021/04/25 02:54:56;;;;;;;11.90;10.30;;;;;;;3.79;81.01;98436.25;5058322;28;20369;-72
2021/04/25 02:57:23;;;;;;;14.70;11.70;;;;;;;3.60;81.24;98440.16;5060988;28;20199;-72
2021/04/25 02:59:50;;;;;;;12.00;10.83;;;;;;;3.58;82.26;98428.09;5059206;28;20682;-73
2021/04/25 03:02:17;;;;;;;15.60;10.83;;;;;;;3.55;81.63;98439.66;5061125;28;20654;-74
2021/04/25 03:04:45;;;;;;;12.57;11.27;;;;;;;3.43;82.76;98436.13;5051173;28;20225;-73
2021/04/25 03:07:12;;;;;;;11.87;10.50;;;;;;;3.51;82.79;98432.09;5060542;28;20726;-74
2021/04/25 03:09:39;;;;;;;13.90;10.97;;;;;;;3.43;82.63;98435.28;5059797;28;20206;-72
2021/04/25 03:12:07;;;;;;;11.73;10.53;;;;;;;3.30;83.58;98440.53;5058755;28;20711;-73
2021/04/25 03:14:34;;;;;;;13.37;11.30;;;;;;;3.42;83.59;98436.25;5056884;28;20203;-73
2021/04/25 03:17:01;;;;;;;13.37;12.07;;;;;;;3.52;82.87;98434.63;5060350;28;20195;-73
2021/04/25 03:19:28;;;;;;;18.07;12.33;;;;;;;3.50;82.73;98431.28;5062992;28;20203;-72
2021/04/25 03:21:56;;;;;;;12.50;11.40;;;;;;;3.42;82.74;98431.81;5055032;28;20575;-73
2021/04/25 03:24:23;;;;;;;12.77;11.47;;;;;;;3.36;83.56;98426.16;5050114;28;20207;-73
2021/04/25 03:26:50;;;;;;;13.17;11.87;;;;;;;3.26;84.30;98433.84;5056305;28;20253;-72
2021/04/25 03:29:18;;;;;;;13.07;11.60;;;;;;;3.35;83.54;98438.44;5058817;28;20809;-72
2021/04/25 03:31:44;;;;;;;12.97;11.67;;;;;;;3.38;83.38;98438.22;5053540;28;20227;-70
2021/04/25 03:34:12;;;;;;;12.97;11.60;;;;;;;3.41;83.38;98430.16;5057154;28;20665;-69
2021/04/25 03:36:39;;;;;;;15.30;11.57;;;;;;;3.40;82.59;98427.63;5061311;28;20578;-69
2021/04/25 03:39:07;;;;;;;13.20;11.97;;;;;;;3.39;82.39;98433.81;5059916;28;20226;-70
2021/04/25 03:41:34;;;;;;;15.23;12.67;;;;;;;3.22;83.71;98438.44;5064460;28;20226;-72
2021/04/25 03:44:01;;;;;;;14.40;11.93;;;;;;;3.15;83.67;98443.25;5062800;28;20230;-70
2021/04/25 03:46:28;;;;;;;13.53;12.13;;;;;;;3.07;83.78;98435.09;5063603;28;20219;-72
2021/04/25 03:48:56;;;;;;;12.90;11.00;;;;;;;3.16;83.80;98436.25;5063469;28;21189;-72
2021/04/25 03:51:23;;;;;;;13.43;12.03;;;;;;;3.06;84.05;98437.84;5063748;28;20594;-72
2021/04/25 03:53:50;;;;;;;13.20;11.80;;;;;;;3.06;84.41;98437.84;5061765;28;20238;-72
2021/04/25 03:56:18;;;;;;;12.53;11.30;;;;;;;2.89;85.09;98435.44;5064109;28;20246;-73
2021/04/25 03:58:45;;;;;;;12.77;11.47;;;;;;;3.01;84.77;98432.91;5063408;28;20294;-73
2021/04/25 04:01:12;;;;;;;16.50;12.90;;;;;;;3.07;83.96;98440.34;5062490;28;20231;-73
2021/04/25 04:03:39;;;;;;;14.33;12.50;;;;;;;3.05;83.52;98434.38;5063348;28;20599;-71
2021/04/25 04:06:06;;;;;;;13.63;12.33;;;;;;;3.10;82.94;98441.94;5062098;28;20607;-72
2021/04/25 04:08:33;;;;;;;14.13;12.70;;;;;;;3.03;83.39;98444.97;5061287;28;20203;-72
2021/04/25 04:11:01;;;;;;;15.47;12.43;;;;;;;3.09;82.80;98437.63;5062862;28;20223;-72
2021/04/25 04:13:28;;;;;;;13.70;12.27;;;;;;;3.11;81.90;98435.75;5063068;28;20206;-72
2021/04/25 04:15:55;;;;;;;13.43;12.03;;;;;;;3.21;80.79;98441.16;5061172;28;20395;-73
2021/04/25 04:18:22;;;;;;;13.73;12.23;;;;;;;3.16;81.08;98444.94;5060348;28;20206;-73
2021/04/25 04:20:49;;;;;;;13.17;11.93;;;;;;;3.08;81.04;98441.19;5064634;28;20382;-71
2021/04/25 04:23:17;;;;;;;13.67;12.27;;;;;;;3.14;80.83;98451.25;5062048;28;20264;-73
2021/04/25 04:25:43;;;;;;;12.23;10.90;;;;;;;3.08;81.26;98449.06;5059528;28;20213;-74
2021/04/25 04:28:10;;;;;;;13.17;10.87;;;;;;;3.12;81.58;98451.34;5059557;28;20476;-72
2021/04/25 04:30:38;;;;;;;13.00;11.87;;;;;;;3.09;81.33;98458.59;5059671;28;20227;-72
2021/04/25 04:33:05;;;;;;;14.17;10.93;;;;;;;3.14;80.00;98452.06;5054096;28;20238;-74
2021/04/25 04:35:33;;;;;;;10.93;9.93;;;;;;;3.15;80.40;98453.75;5059504;28;20199;-71
2021/04/25 04:38:00;;;;;;;12.90;10.37;;;;;;;3.07;80.51;98445.59;5058444;28;20211;-71
2021/04/25 04:40:27;;;;;;;12.23;10.73;;;;;;;3.14;79.62;98448.63;5063623;28;20211;-72
2021/04/25 04:42:54;;;;;;;11.53;10.37;;;;;;;3.24;79.96;98451.44;5060132;28;20238;-72
2021/04/25 04:45:21;;;;;;;10.90;9.73;;;;;;;3.17;80.06;98445.78;5054556;28;20203;-73
2021/04/25 04:47:49;;;;;;;13.00;11.17;;;;;;;3.21;78.91;98447.25;5053220;28;20218;-74
2021/04/25 04:50:18;;;;;;;10.87;9.90;;;;;;;3.16;79.48;98447.56;5055706;28;20213;-74
2021/04/25 04:52:46;;;;;;;12.10;10.90;;;;;;;3.25;79.15;98450.50;5061674;28;20304;-73
2021/04/25 04:55:14;;;;;;;11.40;10.20;;;;;;;3.21;78.65;98456.88;5060165;28;20218;-74
2021/04/25 04:57:41;;;;;;;12.93;11.57;;;;;;;3.25;79.41;98458.38;5059659;28;20775;-74
2021/04/25 05:00:10;;;;;;;9.80;8.90;;;;;;;3.35;78.22;98459.41;5061439;28;20209;-74
2021/04/25 05:02:37;;;;;;;10.00;9.00;;;;;;;3.26;78.11;98462.66;5061181;28;20226;-73
2021/04/25 05:05:07;;;;;;;11.83;10.63;;;;;;;3.27;78.09;98456.47;5058486;28;20690;-75
2021/04/25 05:07:34;;;;;;;12.40;10.17;;;;;;;3.29;78.24;98462.44;5063092;28;20233;-74
2021/04/25 05:10:01;;;;;;;10.57;9.70;;;;;;;3.36;77.24;98462.84;5059746;28;20222;-75
2021/04/25 05:12:28;;;;;;;11.93;10.33;;;;;;;3.47;77.00;98462.94;5059799;28;20234;-74
2021/04/25 05:14:56;;;;;;;11.43;10.33;;;;;;;3.42;77.23;98472.91;5064467;28;20613;-74
2021/04/25 05:17:23;;;;;;;11.33;10.33;;;;;;;3.52;76.98;98468.72;5061169;28;20689;-75
2021/04/25 05:19:50;;;;;;;12.00;10.00;;;;;;;3.64;75.83;98472.25;5060791;28;20207;-74
2021/04/25 05:22:18;;;;;;;10.90;9.80;;;;;;;3.57;76.41;98474.47;5060780;28;20227;-74
2021/04/25 05:24:45;;;;;;;12.37;10.40;;;;;;;3.65;76.04;98480.94;5056957;28;20211;-74
2021/04/25 05:27:12;;;;;;;12.50;10.27;;;;;;;3.75;75.72;98485.44;5062770;28;20608;-74
2021/04/25 05:29:39;;;;;;;10.77;9.67;;;;;;;3.84;74.76;98483.94;5062401;28;20218;-72
2021/04/25 05:32:06;;;;;;;10.53;9.40;;;;;;;3.89;74.80;98486.22;5058835;28;20226;-73
2021/04/25 05:34:33;;;;;;;11.40;10.23;;;;;;;4.01;73.66;98489.75;5062653;28;20514;-75
2021/04/25 05:37:00;;;;;;;12.33;9.47;;;;;;;4.05;73.45;98488.59;5060736;28;20215;-74
2021/04/25 05:39:28;;;;;;;10.33;9.33;;;;;;;4.17;72.90;98494.75;5055179;28;20208;-74
2021/04/25 05:41:55;;;;;;;10.97;9.97;;;;;;;4.24;71.90;98501.22;5050969;28;20230;-74
2021/04/25 05:44:23;;;;;;;12.33;9.33;;;;;;;4.37;71.35;98497.72;5052891;28;20203;-74
2021/04/25 05:46:50;;;;;;;11.30;10.20;;;;;;;4.44;70.64;98497.13;5058498;28;20443;-75
2021/04/25 05:49:17;;;;;;;9.87;8.93;;;;;;;4.62;70.36;98502.81;5056356;28;20206;-73
2021/04/25 05:51:44;;;;;;;9.87;8.90;;;;;;;4.72;69.48;98510.00;5050197;28;20223;-76
2021/04/25 05:54:11;;;;;;;10.97;10.07;;;;;;;4.79;68.89;98508.63;5055389;28;20419;-75
2021/04/25 05:56:38;;;;;;;9.97;9.00;;;;;;;4.90;68.36;98510.41;5059387;28;20199;-73
2021/04/25 05:59:05;;;;;;;10.50;9.50;;;;;;;4.80;68.19;98509.44;5059940;28;20202;-74
2021/04/25 06:01:33;;;;;;;10.23;9.10;;;;;;;4.77;68.17;98515.78;5060960;28;20454;-74
2021/04/25 06:04:00;;;;;;;10.17;8.37;;;;;;;4.96;67.44;98506.50;5061474;28;20210;-75
2021/04/25 06:06:27;;;;;;;10.10;9.10;;;;;;;4.96;66.92;98511.75;5061538;28;20598;-75
2021/04/25 06:08:55;;;;;;;9.50;8.60;;;;;;;5.05;66.28;98511.06;5061871;28;20675;-74
2021/04/25 06:11:22;;;;;;;9.87;8.50;;;;;;;5.22;65.54;98510.63;5057948;28;20235;-75
2021/04/25 06:13:50;;;;;;;9.07;8.00;;;;;;;5.19;65.78;98510.88;5059725;28;20214;-74
2021/04/25 06:16:18;;;;;;;10.47;9.40;;;;;;;5.15;65.74;98512.06;5059563;28;20686;-75
2021/04/25 06:18:45;;;;;;;11.40;9.43;;;;;;;5.36;65.17;98512.19;5061861;28;20665;-74
2021/04/25 06:21:13;;;;;;;10.83;9.00;;;;;;;5.54;64.71;98519.59;5061129;28;20791;-74
2021/04/25 06:23:40;;;;;;;9.63;8.63;;;;;;;5.60;63.27;98515.69;5059743;28;20203;-73
2021/04/25 06:26:07;;;;;;;10.93;8.90;;;;;;;5.70;61.75;98521.88;5061517;28;20610;-75
2021/04/25 06:28:34;;;;;;;10.33;9.43;;;;;;;5.89;62.42;98513.38;5056731;28;20650;-75
2021/04/25 06:31:02;;;;;;;8.40;7.57;;;;;;;5.68;61.28;98529.06;5059935;28;20435;-75
2021/04/25 06:33:29;;;;;;;9.43;8.63;;;;;;;5.86;61.39;98524.16;5060314;28;20199;-75
2021/04/25 06:35:56;;;;;;;8.60;7.70;;;;;;;5.99;59.73;98513.50;5055377;28;20690;-76
2021/04/25 06:38:23;;;;;;;9.27;8.50;;;;;;;5.95;60.47;98519.97;5051197;28;20423;-75
2021/04/25 06:40:50;;;;;;;9.67;8.07;;;;;;;6.05;59.47;98525.34;5052547;28;20340;-75
2021/04/25 06:43:18;;;;;;;8.90;8.10;;;;;;;6.16;59.39;98519.22;5057394;28;20753;-74
2021/04/25 06:45:46;;;;;;;10.17;8.20;;;;;;;6.29;58.63;98519.09;5055719;28;20214;-73
2021/04/25 06:48:15;;;;;;;8.37;7.57;;;;;;;6.22;59.73;98518.72;5053000;28;20295;-72
2021/04/25 06:50:42;;;;;;;8.63;7.73;;;;;;;6.40;58.35;98521.66;5055110;28;20206;-72
2021/04/25 06:53:09;;;;;;;8.93;6.73;;;;;;;6.57;54.96;98516.84;5059858;28;20889;-71
2021/04/25 06:55:37;;;;;;;7.80;7.00;;;;;;;6.62;54.78;98519.94;5056087;28;20444;-72
2021/04/25 06:58:04;;;;;;;8.50;6.70;;;;;;;6.63;54.61;98519.81;5056419;28;20203;-71
2021/04/25 07:00:31;;;;;;;7.73;7.03;;;;;;;6.70;53.43;98514.06;5059318;28;20206;-71
2021/04/25 07:02:58;;;;;;;6.47;5.87;;;;;;;6.72;54.69;98520.84;5059672;28;20230;-70
2021/04/25 07:05:26;;;;;;;7.30;6.70;;;;;;;7.10;54.08;98521.28;5061730;28;20308;-75
2021/04/25 07:07:56;;;;;;;6.60;5.97;;;;;;;7.10;51.45;98523.91;5061327;28;20229;-71
2021/04/25 07:10:23;;;;;;;6.70;6.10;;;;;;;7.12;52.30;98524.59;5061793;28;20291;-71
2021/04/25 07:12:51;;;;;;;8.00;6.80;;;;;;;7.37;51.80;98526.00;5060455;28;20227;-71
2021/04/25 07:15:18;;;;;;;7.07;6.47;;;;;;;7.48;52.73;98529.53;5056108;28;20214;-70
2021/04/25 07:17:45;;;;;;;7.43;6.60;;;;;;;7.42;52.36;98530.91;5050163;28;20207;-71
2021/04/25 07:20:13;;;;;;;7.53;6.83;;;;;;;7.63;52.32;98530.00;5060954;28;20315;-71
2021/04/25 07:22:41;;;;;;;7.23;6.57;;;;;;;7.79;51.63;98532.16;5060243;28;20996;-70
2021/04/25 07:25:09;;;;;;;7.67;6.30;;;;;;;7.55;51.60;98522.75;5063357;28;20675;-71
2021/04/25 07:27:37;;;;;;;7.20;6.53;;;;;;;7.76;51.74;98529.78;5056981;28;20258;-71
2021/04/25 07:30:05;;;;;;;6.20;5.80;;;;;;;7.81;51.08;98525.78;5059304;28;20216;-70
2021/04/25 07:32:32;;;;;;;6.80;6.20;;;;;;;7.88;51.13;98523.44;5059327;28;20227;-70
2021/04/25 07:34:59;;;;;;;6.90;6.30;;;;;;;7.80;50.39;98529.41;5059240;28;20206;-70
2021/04/25 07:37:26;;;;;;;11.00;7.03;;;;;;;7.79;50.10;98522.47;5068552;28;20571;-72
2021/04/25 07:39:54;;;;;;;6.33;5.73;;;;;;;7.81;50.72;98527.59;5060941;28;20329;-69
2021/04/25 07:42:21;;;;;;;8.83;6.87;;;;;;;7.94;50.85;98530.00;5068467;28;20615;-70
2021/04/25 07:44:48;;;;;;;5.60;5.00;;;;;;;8.09;47.51;98520.72;5058947;28;20353;-70
2021/04/25 07:47:15;;;;;;;5.20;4.60;;;;;;;8.24;46.89;98528.28;5057775;28;20516;-70
2021/04/25 07:49:42;;;;;;;3.80;3.53;;;;;;;8.35;43.54;98522.03;5058339;28;20241;-73
2021/04/25 07:52:10;;;;;;;4.00;3.67;;;;;;;8.45;41.53;98522.03;5060123;28;20228;-72
2021/04/25 07:54:37;;;;;;;7.03;3.37;;;;;;;8.52;40.60;98526.66;5058705;28;20606;-73
2021/04/25 07:57:05;;;;;;;4.63;4.03;;;;;;;8.38;40.13;98525.22;5063598;28;20198;-72
2021/04/25 07:59:33;;;;;;;3.87;3.07;;;;;;;8.46;41.61;98536.91;5062423;28;20207;-71
2021/04/25 08:02:00;;;;;;;4.70;3.30;;;;;;;8.57;41.55;98528.91;5063321;28;20230;-71
2021/04/25 08:04:28;;;;;;;6.17;3.60;;;;;;;8.71;39.98;98525.00;5055841;28;20209;-71
2021/04/25 08:06:55;;;;;;;4.00;3.40;;;;;;;8.88;40.65;98520.00;5064162;28;20234;-71
2021/04/25 08:09:22;;;;;;;4.83;3.20;;;;;;;9.01;41.13;98523.19;5058986;28;20212;-72
2021/04/25 08:11:49;;;;;;;3.60;3.30;;;;;;;9.17;39.66;98530.53;5056649;28;20226;-72
2021/04/25 08:14:17;;;;;;;3.30;3.00;;;;;;;9.26;39.55;98531.50;5063920;28;20218;-71
2021/04/25 08:16:44;;;;;;;3.73;3.37;;;;;;;9.25;39.49;98533.31;5062985;28;20214;-72
2021/04/25 08:19:11;;;;;;;3.47;3.13;;;;;;;9.40;39.60;98530.22;5063642;28;20582;-72
2021/04/25 08:21:38;;;;;;;4.67;3.60;;;;;;;9.66;40.34;98533.06;5063593;28;20270;-71
2021/04/25 08:24:06;;;;;;;4.10;3.50;;;;;;;9.68;39.06;98525.81;5062948;28;20203;-72
2021/04/25 08:26:34;;;;;;;3.77;3.37;;;;;;;9.80;37.77;98522.97;5062518;28;20210;-72
2021/04/25 08:29:01;;;;;;;4.67;3.63;;;;;;;9.83;37.85;98526.16;5061205;28;21562;-73
2021/04/25 08:31:29;;;;;;;3.90;3.47;;;;;;;9.89;37.81;98523.91;5061530;28;20729;-72
2021/04/25 08:33:56;;;;;;;3.30;2.90;;;;;;;9.81;38.56;98532.56;5063567;28;20218;-72
2021/04/25 08:36:23;;;;;;;5.83;3.73;;;;;;;9.85;37.38;98534.78;5063771;28;20203;-71
2021/04/25 08:38:50;;;;;;;4.00;3.60;;;;;;;9.74;38.53;98535.00;5062399;28;20206;-70
2021/04/25 08:41:21;;;;;;;3.20;2.90;;;;;;;10.03;38.81;98536.66;5062143;28;20227;-71
2021/04/25 08:43:49;;;;;;;4.07;3.13;;;;;;;10.05;38.73;98526.78;5062498;28;20203;-72
2021/04/25 08:46:18;;;;;;;3.10;2.80;;;;;;;10.08;38.38;98523.81;5062774;28;20209;-71
2021/04/25 08:48:48;;;;;;;3.53;3.13;;;;;;;10.27;36.66;98529.97;5063304;28;20207;-70
2021/04/25 08:51:17;;;;;;;5.03;4.10;;;;;;;9.90;35.88;98539.66;5064199;28;20246;-70
2021/04/25 08:53:44;;;;;;;4.53;3.00;;;;;;;9.98;35.08;98538.91;5056315;28;20294;-71
2021/04/25 08:56:13;;;;;;;4.53;4.13;;;;;;;9.72;34.63;98522.88;5061421;28;20651;-70
2021/04/25 08:58:42;;;;;;;3.53;3.23;;;;;;;9.92;36.17;98537.69;5062295;28;20210;-72
2021/04/25 09:01:10;;;;;;;3.57;3.27;;;;;;;9.95;35.64;98537.41;5062197;28;20227;-72
2021/04/25 09:03:38;;;;;;;3.33;3.13;;;;;;;9.54;36.29;98542.16;5058690;28;20203;-72
2021/04/25 09:06:07;;;;;;;4.13;3.83;;;;;;;9.69;37.18;98540.72;5059682;28;20203;-73
2021/04/25 09:08:47;;;;;;;4.37;3.70;;;;;;;9.75;35.58;98538.47;5060708;28;20690;-70
2021/04/25 09:11:26;;;;;;;3.77;3.37;;;;;;;10.04;35.93;98534.84;5057335;28;20316;-73
2021/04/25 09:14:28;;;;;;;4.43;2.90;;;;;;;10.08;36.46;98525.63;5061738;28;20490;-72
2021/04/25 09:17:00;;;;;;;5.13;3.23;;;;;;;10.21;34.68;98538.53;5056396;28;20667;-71
2021/04/25 09:19:47;;;;;;;4.80;3.67;;;;;;;10.33;33.61;98516.13;5062397;28;20261;-73
2021/04/25 09:22:15;;;;;;;3.97;3.30;;;;;;;10.10;34.75;98524.50;5060911;28;20223;-72
2021/04/25 09:24:42;;;;;;;3.83;3.27;;;;;;;10.03;35.67;98534.00;5057741;28;20207;-73
2021/04/25 09:27:09;;;;;;;4.40;3.33;;;;;;;9.88;36.84;98532.84;5062005;28;20585;-73
2021/04/25 09:29:52;;;;;;;3.73;3.50;;;;;;;10.17;37.13;98531.88;5062160;28;20622;-72
2021/04/25 09:32:21;;;;;;;4.43;3.40;;;;;;;10.36;36.14;98523.78;5056127;28;20349;-71
2021/04/25 09:34:48;;;;;;;4.20;3.53;;;;;;;10.41;36.05;98526.03;5060250;28;20289;-73
2021/04/25 09:37:18;;;;;;;3.77;3.47;;;;;;;10.56;35.38;98521.03;5061405;28;20229;-73
2021/04/25 09:40:06;;;;;;;4.63;3.00;;;;;;;10.80;35.32;98531.03;5059946;28;20280;-72
2021/04/25 09:42:54;;;;;;;3.17;2.97;;;;;;;10.55;33.63;98525.50;5060040;28;20563;-73
2021/04/25 09:45:23;;;;;;;4.57;3.40;;;;;;;10.34;34.18;98523.09;5056365;28;20237;-73
2021/04/25 09:47:50;;;;;;;4.30;3.63;;;;;;;10.40;34.66;98511.13;5052351;28;20229;-73
2021/04/25 09:50:18;;;;;;;3.53;3.07;;;;;;;10.53;35.93;98522.16;5062697;28;20299;-72
2021/04/25 09:52:49;;;;;;;3.47;3.17;;;;;;;10.76;35.37;98513.78;5059734;28;20219;-73
2021/04/25 09:55:19;;;;;;;6.17;3.77;;;;;;;11.11;34.84;98514.72;5061511;28;20920;-73
2021/04/25 09:57:46;;;;;;;4.17;3.37;;;;;;;11.08;34.46;98515.03;5060752;28;20203;-73
2021/04/25 10:00:14;;;;;;;6.73;3.80;;;;;;;11.20;34.15;98520.91;5061179;28;20374;-72
2021/04/25 10:03:07;;;;;;;4.50;3.57;;;;;;;10.95;35.33;98518.06;5061014;28;20344;-70
2021/04/25 10:05:34;;;;;;;3.90;3.50;;;;;;;10.91;34.94;98508.75;5058868;28;20226;-72
2021/04/25 10:08:03;;;;;;;3.33;3.03;;;;;;;10.95;34.48;98510.13;5060242;28;20245;-72
2021/04/25 10:10:32;;;;;;;3.73;3.30;;;;;;;11.26;34.83;98517.63;5059108;28;20203;-72
2021/04/25 10:13:00;;;;;;;6.20;3.57;;;;;;;11.36;34.72;98512.22;5059807;28;20575;-71
2021/04/25 10:15:27;;;;;;;4.03;3.40;;;;;;;10.94;34.88;98507.59;5061507;28;20203;-72
2021/04/25 10:17:55;;;;;;;3.37;3.03;;;;;;;10.84;35.14;98513.00;5059762;28;20757;-71
2021/04/25 10:20:23;;;;;;;3.87;3.30;;;;;;;11.03;35.11;98501.41;5056906;28;20199;-72
2021/04/25 10:22:52;;;;;;;3.70;3.40;;;;;;;11.25;33.97;98502.72;5060378;28;20230;-72
2021/04/25 10:25:31;;;;;;;4.43;3.80;;;;;;;11.36;34.21;98492.81;5057604;28;20606;-72
2021/04/25 10:28:01;;;;;;;3.53;3.23;;;;;;;11.24;34.65;98489.59;5056831;28;20253;-72
2021/04/25 10:30:34;;;;;;;4.83;3.20;;;;;;;11.50;33.99;98481.59;5061476;28;20213;-69
2021/04/25 10:33:01;;;;;;;5.27;4.17;;;;;;;11.97;33.18;98482.16;5060548;28;20231;-71
2021/04/25 10:35:33;;;;;;;3.77;3.47;;;;;;;12.16;32.43;98481.91;5061829;28;20207;-71
2021/04/25 10:38:01;;;;;;;4.03;2.87;;;;;;;12.38;32.09;98484.94;5058102;28;20224;-71
2021/04/25 10:40:34;;;;;;;3.77;3.23;;;;;;;12.53;31.14;98493.13;5061710;28;20507;-71
2021/04/25 10:43:06;;;;;;;3.90;3.50;;;;;;;12.38;31.14;98487.59;5061909;28;20230;-72
2021/04/25 10:45:36;;;;;;;8.53;4.00;;;;;;;12.35;31.34;98487.09;5063521;28;20207;-72
2021/04/25 10:48:29;;;;;;;3.57;3.20;;;;;;;13.36;31.03;98481.56;5062662;28;20262;-72
2021/04/25 10:51:16;;;;;;;3.43;3.20;;;;;;;13.78;29.68;98485.81;5060837;28;20718;-71
2021/04/25 10:53:46;;;;;;;3.93;3.53;;;;;;;13.99;29.63;98490.53;5065111;28;20207;-72
2021/04/25 10:56:26;;;;;;;4.23;3.80;;;;;;;14.31;29.71;98478.03;5065774;28;20253;-73
2021/04/25 10:59:31;;;;;;;4.33;3.57;;;;;;;14.67;28.34;98473.97;5064295;28;20280;-71
2021/04/25 11:02:00;;;;;;;4.13;3.50;;;;;;;13.88;27.83;98489.13;5059815;28;20226;-72
2021/04/25 11:04:59;;;;;;;4.13;3.70;;;;;;;13.65;29.07;98480.19;5062892;28;20203;-72
2021/04/25 11:07:54;;;;;;;4.23;3.77;;;;;;;13.52;28.04;98478.91;5063695;28;20211;-72
2021/04/25 11:10:23;;;;;;;4.00;3.70;;;;;;;13.31;28.26;98474.94;5059263;28;20212;-72
2021/04/25 11:12:51;;;;;;;4.80;3.57;;;;;;;13.11;29.59;98471.00;5061533;28;20222;-72
2021/04/25 11:15:52;;;;;;;3.87;3.43;;;;;;;12.90;29.40;98467.00;5063961;28;20832;-71
2021/04/25 11:18:42;;;;;;;3.87;3.57;;;;;;;12.80;28.43;98477.00;5063588;28;20219;-72
2021/04/25 11:21:50;;;;;;;4.27;3.60;;;;;;;13.16;27.87;98487.28;5062790;28;20642;-72
2021/04/25 11:24:33;;;;;;;4.70;3.43;;;;;;;13.39;28.78;98475.91;5062976;28;20206;-73
2021/04/25 11:27:05;;;;;;;4.63;3.80;;;;;;;13.33;28.41;98466.78;5064111;28;20701;-73
2021/04/25 11:30:04;;;;;;;5.23;3.77;;;;;;;13.14;29.80;98465.34;5063187;28;20207;-72
2021/04/25 11:32:33;;;;;;;3.67;3.23;;;;;;;13.53;29.37;98469.09;5062334;28;20230;-73
2021/04/25 11:35:20;;;;;;;3.73;3.43;;;;;;;13.44;27.87;98465.59;5064620;28;20256;-71
2021/04/25 11:37:48;;;;;;;4.10;3.80;;;;;;;13.08;28.36;98471.34;5054682;28;20203;-72
2021/04/25 11:40:22;;;;;;;3.93;3.63;;;;;;;13.48;29.28;98466.97;5066278;28;20759;-73